sensor_id;sensor_type;location;lat;lon;timestamp;pressure;altitude;pressure_sealevel;temperature;humidity
32251;BME280;41295;48.518;9.206;2023-07-29T00:00:08;96810.50;;;17.97;90.48
32251;BME280;41295;48.518;9.206;2023-07-29T00:02:14;96816.47;;;17.99;90.38
32251;BME280;41295;48.518;9.206;2023-07-29T00:04:17;96816.28;;;18.02;90.39
32251;BME280;41295;48.518;9.206;2023-07-29T00:06:21;96811.00;;;18.02;90.38
32251;BME280;41295;48.518;9.206;2023-07-29T00:08:24;96803.78;;;18.04;89.90
32251;BME280;41295;48.518;9.206;2023-07-29T00:10:27;96800.09;;;18.07;90.02
32251;BME280;41295;48.518;9.206;2023-07-29T00:12:29;96810.28;;;18.12;89.48
32251;BME280;41295;48.518;9.206;2023-07-29T00:14:33;96802.88;;;18.17;88.92
32251;BME280;41295;48.518;9.206;2023-07-29T00:16:36;96797.72;;;18.15;89.51
32251;BME280;41295;48.518;9.206;2023-07-29T00:18:38;96803.13;;;18.14;89.53
32251;BME280;41295;48.518;9.206;2023-07-29T00:20:41;96803.13;;;18.14;89.63
32251;BME280;41295;48.518;9.206;2023-07-29T00:22:44;96798.47;;;18.18;89.29
32251;BME280;41295;48.518;9.206;2023-07-29T00:24:51;96803.59;;;18.19;89.45
32251;BME280;41295;48.518;9.206;2023-07-29T00:26:53;96797.84;;;18.14;89.88
32251;BME280;41295;48.518;9.206;2023-07-29T00:28:56;96800.22;;;18.06;90.15
32251;BME280;41295;48.518;9.206;2023-07-29T00:31:01;96803.78;;;18.04;90.71
32251;BME280;41295;48.518;9.206;2023-07-29T00:33:05;96792.28;;;18.06;90.24
32251;BME280;41295;48.518;9.206;2023-07-29T00:35:08;96795.66;;;18.08;90.46
32251;BME280;41295;48.518;9.206;2023-07-29T00:37:11;96790.16;;;18.11;90.12
32251;BME280;41295;48.518;9.206;2023-07-29T00:39:14;96798.31;;;18.08;90.37
32251;BME280;41295;48.518;9.206;2023-07-29T00:41:16;96803.22;;;18.12;90.44
32251;BME280;41295;48.518;9.206;2023-07-29T00:43:19;96803.97;;;18.14;90.43
32251;BME280;41295;48.518;9.206;2023-07-29T00:45:24;96795.41;;;18.11;90.67
32251;BME280;41295;48.518;9.206;2023-07-29T00:47:28;96788.16;;;18.14;90.68
32251;BME280;41295;48.518;9.206;2023-07-29T00:49:32;96793.19;;;18.18;90.60
32251;BME280;41295;48.518;9.206;2023-07-29T00:51:35;96790.41;;;18.19;89.82
32251;BME280;41295;48.518;9.206;2023-07-29T00:53:37;96786.22;;;18.17;90.43
32251;BME280;41295;48.518;9.206;2023-07-29T00:55:43;96788.75;;;18.18;90.68
32251;BME280;41295;48.518;9.206;2023-07-29T00:57:46;96787.78;;;18.19;90.42
32251;BME280;41295;48.518;9.206;2023-07-29T00:59:53;96789.34;;;18.22;90.27
32251;BME280;41295;48.518;9.206;2023-07-29T01:01:56;96789.00;;;18.26;90.57
32251;BME280;41295;48.518;9.206;2023-07-29T01:04:01;96784.81;;;18.24;90.11
32251;BME280;41295;48.518;9.206;2023-07-29T01:06:10;96778.81;;;18.22;90.59
32251;BME280;41295;48.518;9.206;2023-07-29T01:08:21;96778.56;;;18.25;90.68
32251;BME280;41295;48.518;9.206;2023-07-29T01:10:30;96777.72;;;18.24;90.43
32251;BME280;41295;48.518;9.206;2023-07-29T01:12:40;96771.75;;;18.22;90.42
32251;BME280;41295;48.518;9.206;2023-07-29T01:14:48;96785.75;;;18.23;90.73
32251;BME280;41295;48.518;9.206;2023-07-29T01:16:52;96774.38;;;18.22;90.91
32251;BME280;41295;48.518;9.206;2023-07-29T01:19:06;96769.91;;;18.23;90.89
32251;BME280;41295;48.518;9.206;2023-07-29T01:21:11;96767.41;;;18.21;90.77
32251;BME280;41295;48.518;9.206;2023-07-29T01:23:15;96772.34;;;18.26;90.58
32251;BME280;41295;48.518;9.206;2023-07-29T01:25:20;96772.34;;;18.26;90.64
32251;BME280;41295;48.518;9.206;2023-07-29T01:27:22;96776.03;;;18.23;90.61
32251;BME280;41295;48.518;9.206;2023-07-29T01:29:24;96777.50;;;18.27;90.53
32251;BME280;41295;48.518;9.206;2023-07-29T01:31:31;96777.63;;;18.26;90.38
32251;BME280;41295;48.518;9.206;2023-07-29T01:33:40;96779.28;;;18.27;90.51
32251;BME280;41295;48.518;9.206;2023-07-29T01:35:48;96785.41;;;18.27;90.99
32251;BME280;41295;48.518;9.206;2023-07-29T01:37:55;96782.06;;;18.25;90.64
32251;BME280;41295;48.518;9.206;2023-07-29T01:40:01;96780.47;;;18.23;91.05
32251;BME280;41295;48.518;9.206;2023-07-29T01:42:07;96775.44;;;18.20;91.29
32251;BME280;41295;48.518;9.206;2023-07-29T01:44:11;96774.72;;;18.18;91.04
32251;BME280;41295;48.518;9.206;2023-07-29T01:46:14;96772.06;;;18.18;91.08
32251;BME280;41295;48.518;9.206;2023-07-29T01:48:17;96775.81;;;18.15;91.09
32251;BME280;41295;48.518;9.206;2023-07-29T01:50:20;96778.53;;;18.13;91.31
32251;BME280;41295;48.518;9.206;2023-07-29T01:52:23;96769.78;;;18.13;91.56
32251;BME280;41295;48.518;9.206;2023-07-29T01:54:25;96770.72;;;18.12;91.70
32251;BME280;41295;48.518;9.206;2023-07-29T01:56:28;96765.13;;;18.17;91.03
32251;BME280;41295;48.518;9.206;2023-07-29T01:58:32;96767.66;;;18.18;90.67
32251;BME280;41295;48.518;9.206;2023-07-29T02:00:35;96764.28;;;18.16;90.59
32251;BME280;41295;48.518;9.206;2023-07-29T02:02:38;96760.06;;;18.13;90.86
32251;BME280;41295;48.518;9.206;2023-07-29T02:04:40;96748.91;;;18.10;91.43
32251;BME280;41295;48.518;9.206;2023-07-29T02:06:46;96751.53;;;18.10;90.58
32251;BME280;41295;48.518;9.206;2023-07-29T02:08:50;96752.13;;;18.02;90.25
32251;BME280;41295;48.518;9.206;2023-07-29T02:10:53;96759.06;;;18.03;90.48
32251;BME280;41295;48.518;9.206;2023-07-29T02:12:56;96754.88;;;18.00;90.83
32251;BME280;41295;48.518;9.206;2023-07-29T02:15:00;96751.16;;;17.91;90.22
32251;BME280;41295;48.518;9.206;2023-07-29T02:17:03;96743.56;;;17.87;90.91
32251;BME280;41295;48.518;9.206;2023-07-29T02:19:06;96754.84;;;17.89;90.86
32251;BME280;41295;48.518;9.206;2023-07-29T02:21:08;96753.31;;;17.86;90.96
32251;BME280;41295;48.518;9.206;2023-07-29T02:23:11;96748.34;;;17.82;91.25
32251;BME280;41295;48.518;9.206;2023-07-29T02:25:14;96739.75;;;17.79;91.15
32251;BME280;41295;48.518;9.206;2023-07-29T02:27:16;96737.81;;;17.82;91.04
32251;BME280;41295;48.518;9.206;2023-07-29T02:29:19;96728.97;;;17.83;90.47
32251;BME280;41295;48.518;9.206;2023-07-29T02:31:25;96742.16;;;17.83;90.08
32251;BME280;41295;48.518;9.206;2023-07-29T02:33:27;96734.34;;;17.81;90.17
32251;BME280;41295;48.518;9.206;2023-07-29T02:35:30;96724.03;;;17.78;89.89
32251;BME280;41295;48.518;9.206;2023-07-29T02:37:43;96723.94;;;17.79;89.26
32251;BME280;41295;48.518;9.206;2023-07-29T02:39:46;96736.03;;;17.82;89.21
32251;BME280;41295;48.518;9.206;2023-07-29T02:41:49;96735.16;;;17.82;88.77
32251;BME280;41295;48.518;9.206;2023-07-29T02:43:52;96730.75;;;17.82;88.61
32251;BME280;41295;48.518;9.206;2023-07-29T02:45:54;96740.44;;;17.82;89.06
32251;BME280;41295;48.518;9.206;2023-07-29T02:47:58;96727.06;;;17.85;88.57
32251;BME280;41295;48.518;9.206;2023-07-29T02:50:00;96727.66;;;17.88;88.97
32251;BME280;41295;48.518;9.206;2023-07-29T02:52:03;96732.31;;;17.85;88.99
32251;BME280;41295;48.518;9.206;2023-07-29T02:54:06;96734.34;;;17.81;89.85
32251;BME280;41295;48.518;9.206;2023-07-29T02:56:09;96730.19;;;17.90;89.16
32251;BME280;41295;48.518;9.206;2023-07-29T02:58:13;96729.44;;;17.88;89.11
32251;BME280;41295;48.518;9.206;2023-07-29T03:00:15;96725.97;;;17.87;89.58
32251;BME280;41295;48.518;9.206;2023-07-29T03:02:18;96736.38;;;17.89;89.46
32251;BME280;41295;48.518;9.206;2023-07-29T03:04:21;96732.31;;;17.85;89.61
32251;BME280;41295;48.518;9.206;2023-07-29T03:06:24;96735.44;;;17.90;89.78
32251;BME280;41295;48.518;9.206;2023-07-29T03:08:27;96735.44;;;17.90;89.77
32251;BME280;41295;48.518;9.206;2023-07-29T03:10:29;96734.72;;;17.88;90.22
32251;BME280;41295;48.518;9.206;2023-07-29T03:12:32;96727.66;;;17.88;90.56
32251;BME280;41295;48.518;9.206;2023-07-29T03:14:35;96722.72;;;17.84;90.59
32251;BME280;41295;48.518;9.206;2023-07-29T03:16:38;96713.63;;;17.88;90.13
32251;BME280;41295;48.518;9.206;2023-07-29T03:18:43;96705.72;;;17.88;90.26
32251;BME280;41295;48.518;9.206;2023-07-29T03:20:48;96715.41;;;17.87;89.89
32251;BME280;41295;48.518;9.206;2023-07-29T03:22:51;96711.94;;;17.87;89.68
32251;BME280;41295;48.518;9.206;2023-07-29T03:24:54;96712.28;;;17.82;89.93
32251;BME280;41295;48.518;9.206;2023-07-29T03:26:56;96706.53;;;17.77;89.91
32251;BME280;41295;48.518;9.206;2023-07-29T03:28:59;96701.38;;;17.75;90.01
32251;BME280;41295;48.518;9.206;2023-07-29T03:31:02;96708.44;;;17.75;90.16
32251;BME280;41295;48.518;9.206;2023-07-29T03:33:05;96717.78;;;17.67;90.24
32251;BME280;41295;48.518;9.206;2023-07-29T03:35:08;96706.84;;;17.61;90.67
32251;BME280;41295;48.518;9.206;2023-07-29T03:37:11;96706.47;;;17.54;91.25
32251;BME280;41295;48.518;9.206;2023-07-29T03:39:14;96716.19;;;17.53;92.13
32251;BME280;41295;48.518;9.206;2023-07-29T03:41:16;96711.63;;;17.55;92.78
32251;BME280;41295;48.518;9.206;2023-07-29T03:43:19;96707.22;;;17.56;93.09
32251;BME280;41295;48.518;9.206;2023-07-29T03:45:22;96714.66;;;17.62;93.25
32251;BME280;41295;48.518;9.206;2023-07-29T03:47:25;96716.34;;;17.63;93.39
32251;BME280;41295;48.518;9.206;2023-07-29T03:49:27;96712.38;;;17.58;93.50
32251;BME280;41295;48.518;9.206;2023-07-29T03:51:30;96715.81;;;17.58;94.17
32251;BME280;41295;48.518;9.206;2023-07-29T03:53:34;96710.09;;;17.64;93.87
32251;BME280;41295;48.518;9.206;2023-07-29T03:55:37;96704.59;;;17.67;93.88
32251;BME280;41295;48.518;9.206;2023-07-29T03:57:40;96700.88;;;17.70;93.54
32251;BME280;41295;48.518;9.206;2023-07-29T03:59:42;96702.56;;;17.71;93.66
32251;BME280;41295;48.518;9.206;2023-07-29T04:01:45;96709.28;;;17.75;93.67
32251;BME280;41295;48.518;9.206;2023-07-29T04:03:48;96710.00;;;17.77;93.27
32251;BME280;41295;48.518;9.206;2023-07-29T04:05:53;96708.19;;;17.78;93.31
32251;BME280;41295;48.518;9.206;2023-07-29T04:07:55;96701.88;;;17.81;93.42
32251;BME280;41295;48.518;9.206;2023-07-29T04:09:59;96698.03;;;17.85;92.93
32251;BME280;41295;48.518;9.206;2023-07-29T04:12:03;96701.88;;;17.81;93.21
32251;BME280;41295;48.518;9.206;2023-07-29T04:14:05;96705.09;;;17.84;93.08
32251;BME280;41295;48.518;9.206;2023-07-29T04:16:08;96695.03;;;17.89;92.36
32251;BME280;41295;48.518;9.206;2023-07-29T04:18:10;96693.59;;;17.85;92.57
32251;BME280;41295;48.518;9.206;2023-07-29T04:20:12;96696.09;;;17.87;92.80
32251;BME280;41295;48.518;9.206;2023-07-29T04:22:18;96691.69;;;17.87;92.60
32251;BME280;41295;48.518;9.206;2023-07-29T04:24:21;96693.38;;;17.88;92.82
32251;BME280;41295;48.518;9.206;2023-07-29T04:26:26;96688.91;;;17.89;92.74
32251;BME280;41295;48.518;9.206;2023-07-29T04:28:28;96691.34;;;17.92;92.61
32251;BME280;41295;48.518;9.206;2023-07-29T04:30:31;96685.47;;;17.88;92.64
32251;BME280;41295;48.518;9.206;2023-07-29T04:32:34;96693.47;;;17.87;92.89
32251;BME280;41295;48.518;9.206;2023-07-29T04:34:37;96689.16;;;17.86;93.03
32251;BME280;41295;48.518;9.206;2023-07-29T04:36:39;96685.91;;;17.82;93.14
32251;BME280;41295;48.518;9.206;2023-07-29T04:38:42;96689.78;;;17.89;92.57
32251;BME280;41295;48.518;9.206;2023-07-29T04:40:45;96689.78;;;17.89;92.50
32251;BME280;41295;48.518;9.206;2023-07-29T04:42:49;96684.25;;;17.92;92.69
32251;BME280;41295;48.518;9.206;2023-07-29T04:44:51;96686.06;;;17.92;92.84
32251;BME280;41295;48.518;9.206;2023-07-29T04:46:54;96685.94;;;17.94;92.97
32251;BME280;41295;48.518;9.206;2023-07-29T04:48:57;96689.78;;;18.01;93.09
32251;BME280;41295;48.518;9.206;2023-07-29T04:50:59;96690.50;;;18.03;93.10
32251;BME280;41295;48.518;9.206;2023-07-29T04:53:02;96692.53;;;18.11;92.96
32251;BME280;41295;48.518;9.206;2023-07-29T04:55:05;96696.03;;;18.11;93.08
32251;BME280;41295;48.518;9.206;2023-07-29T04:57:08;96698.44;;;18.14;93.05
32251;BME280;41295;48.518;9.206;2023-07-29T04:59:12;96699.06;;;18.18;92.87
32251;BME280;41295;48.518;9.206;2023-07-29T05:01:15;96697.13;;;18.20;92.55
32251;BME280;41295;48.518;9.206;2023-07-29T05:03:18;96689.94;;;18.22;93.01
32251;BME280;41295;48.518;9.206;2023-07-29T05:05:21;96695.09;;;18.24;92.63
32251;BME280;41295;48.518;9.206;2023-07-29T05:07:23;96681.66;;;18.27;92.55
32251;BME280;41295;48.518;9.206;2023-07-29T05:09:29;96691.03;;;18.31;91.53
32251;BME280;41295;48.518;9.206;2023-07-29T05:11:32;96762.28;;;18.31;90.55
32251;BME280;41295;48.518;9.206;2023-07-29T05:13:37;96778.91;;;18.32;90.09
32251;BME280;41295;48.518;9.206;2023-07-29T05:15:42;96733.81;;;18.46;88.84
32251;BME280;41295;48.518;9.206;2023-07-29T05:17:44;96763.34;;;18.40;88.87
32251;BME280;41295;48.518;9.206;2023-07-29T05:19:47;96744.88;;;18.40;89.25
32251;BME280;41295;48.518;9.206;2023-07-29T05:21:50;96736.47;;;18.35;89.55
32251;BME280;41295;48.518;9.206;2023-07-29T05:23:53;96737.28;;;18.35;90.17
32251;BME280;41295;48.518;9.206;2023-07-29T05:25:55;96738.88;;;18.38;89.74
32251;BME280;41295;48.518;9.206;2023-07-29T05:27:58;96729.50;;;18.34;90.16
32251;BME280;41295;48.518;9.206;2023-07-29T05:30:01;96736.69;;;18.32;90.49
32251;BME280;41295;48.518;9.206;2023-07-29T05:32:05;96743.88;;;18.30;91.28
32251;BME280;41295;48.518;9.206;2023-07-29T05:34:08;96759.72;;;18.30;91.71
32251;BME280;41295;48.518;9.206;2023-07-29T05:36:11;96754.94;;;18.23;92.29
32251;BME280;41295;48.518;9.206;2023-07-29T05:38:14;96754.81;;;18.25;92.60
32251;BME280;41295;48.518;9.206;2023-07-29T05:40:16;96753.97;;;18.24;93.06
32251;BME280;41295;48.518;9.206;2023-07-29T05:42:22;96752.06;;;18.26;93.34
32251;BME280;41295;48.518;9.206;2023-07-29T05:44:25;96750.63;;;18.34;93.53
32251;BME280;41295;48.518;9.206;2023-07-29T05:46:30;96749.31;;;18.39;93.78
32251;BME280;41295;48.518;9.206;2023-07-29T05:48:34;96750.38;;;18.48;93.58
32251;BME280;41295;48.518;9.206;2023-07-29T05:50:37;96756.38;;;18.50;93.70
32251;BME280;41295;48.518;9.206;2023-07-29T05:52:39;96751.47;;;18.57;93.75
32251;BME280;41295;48.518;9.206;2023-07-29T05:54:42;96757.34;;;18.61;93.37
32251;BME280;41295;48.518;9.206;2023-07-29T05:56:45;96744.13;;;18.61;93.40
32251;BME280;41295;48.518;9.206;2023-07-29T05:58:48;96735.16;;;18.63;93.42
32251;BME280;41295;48.518;9.206;2023-07-29T06:00:51;96738.47;;;18.66;93.62
32251;BME280;41295;48.518;9.206;2023-07-29T06:02:54;96740.16;;;18.67;94.01
32251;BME280;41295;48.518;9.206;2023-07-29T06:04:58;96738.00;;;18.72;93.73
32251;BME280;41295;48.518;9.206;2023-07-29T06:07:02;96736.91;;;18.74;93.48
32251;BME280;41295;48.518;9.206;2023-07-29T06:09:04;96727.19;;;18.75;93.19
32251;BME280;41295;48.518;9.206;2023-07-29T06:11:07;96714.56;;;18.79;93.08
32251;BME280;41295;48.518;9.206;2023-07-29T06:13:10;96716.97;;;18.82;93.45
32251;BME280;41295;48.518;9.206;2023-07-29T06:15:13;96722.03;;;18.85;93.79
32251;BME280;41295;48.518;9.206;2023-07-29T06:17:16;96724.53;;;18.86;93.96
32251;BME280;41295;48.518;9.206;2023-07-29T06:19:19;96727.06;;;18.88;94.34
32251;BME280;41295;48.518;9.206;2023-07-29T06:21:23;96724.41;;;18.88;94.06
32251;BME280;41295;48.518;9.206;2023-07-29T06:23:26;96711.91;;;18.90;93.62
32251;BME280;41295;48.518;9.206;2023-07-29T06:25:29;96724.16;;;18.91;93.78
32251;BME280;41295;48.518;9.206;2023-07-29T06:27:32;96724.88;;;18.93;94.08
32251;BME280;41295;48.518;9.206;2023-07-29T06:29:34;96726.41;;;18.96;94.45
32251;BME280;41295;48.518;9.206;2023-07-29T06:31:37;96726.31;;;18.97;94.41
32251;BME280;41295;48.518;9.206;2023-07-29T06:33:40;96718.13;;;19.01;94.02
32251;BME280;41295;48.518;9.206;2023-07-29T06:35:42;96727.25;;;19.08;93.58
32251;BME280;41295;48.518;9.206;2023-07-29T06:37:46;96716.31;;;19.13;93.62
32251;BME280;41295;48.518;9.206;2023-07-29T06:39:52;96718.97;;;19.13;94.17
32251;BME280;41295;48.518;9.206;2023-07-29T06:41:55;96712.22;;;19.20;93.59
32251;BME280;41295;48.518;9.206;2023-07-29T06:43:57;96707.38;;;19.25;93.27
32251;BME280;41295;48.518;9.206;2023-07-29T06:46:00;96709.41;;;19.33;93.40
32251;BME280;41295;48.518;9.206;2023-07-29T06:48:03;96710.56;;;19.40;93.77
32251;BME280;41295;48.518;9.206;2023-07-29T06:50:07;96708.50;;;19.44;93.49
32251;BME280;41295;48.518;9.206;2023-07-29T06:52:09;96715.47;;;19.45;93.05
32251;BME280;41295;48.518;9.206;2023-07-29T06:54:13;96718.38;;;19.42;92.42
32251;BME280;41295;48.518;9.206;2023-07-29T06:56:16;96729.75;;;19.42;91.64
32251;BME280;41295;48.518;9.206;2023-07-29T06:58:19;96739.75;;;19.39;90.63
32251;BME280;41295;48.518;9.206;2023-07-29T07:00:22;96754.78;;;19.38;90.49
32251;BME280;41295;48.518;9.206;2023-07-29T07:02:24;96772.44;;;19.38;89.42
32251;BME280;41295;48.518;9.206;2023-07-29T07:04:27;96780.97;;;19.41;88.59
32251;BME280;41295;48.518;9.206;2023-07-29T07:06:30;96796.16;;;19.28;89.63
32251;BME280;41295;48.518;9.206;2023-07-29T07:08:32;96819.47;;;19.22;90.75
32251;BME280;41295;48.518;9.206;2023-07-29T07:10:35;96812.03;;;19.16;91.17
32251;BME280;41295;48.518;9.206;2023-07-29T07:12:38;96816.72;;;19.13;91.99
32251;BME280;41295;48.518;9.206;2023-07-29T07:14:41;96809.88;;;19.10;92.07
32251;BME280;41295;48.518;9.206;2023-07-29T07:16:43;96812.00;;;19.05;91.49
32251;BME280;41295;48.518;9.206;2023-07-29T07:18:46;96803.38;;;19.03;92.23
32251;BME280;41295;48.518;9.206;2023-07-29T07:20:49;96798.78;;;19.05;92.48
32251;BME280;41295;48.518;9.206;2023-07-29T07:22:52;96789.94;;;19.06;93.13
32251;BME280;41295;48.518;9.206;2023-07-29T07:24:54;96793.28;;;19.08;93.63
32251;BME280;41295;48.518;9.206;2023-07-29T07:26:58;96798.31;;;19.11;93.78
32251;BME280;41295;48.518;9.206;2023-07-29T07:29:01;96790.41;;;19.11;94.06
32251;BME280;41295;48.518;9.206;2023-07-29T07:31:03;96795.69;;;19.11;94.32
32251;BME280;41295;48.518;9.206;2023-07-29T07:33:06;96790.28;;;19.13;94.52
32251;BME280;41295;48.518;9.206;2023-07-29T07:35:09;96788.84;;;19.20;94.58
32251;BME280;41295;48.518;9.206;2023-07-29T07:37:12;96798.34;;;19.22;94.73
32251;BME280;41295;48.518;9.206;2023-07-29T07:39:14;96800.34;;;19.30;94.82
32251;BME280;41295;48.518;9.206;2023-07-29T07:41:17;96804.28;;;19.36;95.10
32251;BME280;41295;48.518;9.206;2023-07-29T07:43:21;96799.72;;;19.38;95.46
32251;BME280;41295;48.518;9.206;2023-07-29T07:45:24;96796.94;;;19.40;95.52
32251;BME280;41295;48.518;9.206;2023-07-29T07:47:27;96795.84;;;19.42;94.99
32251;BME280;41295;48.518;9.206;2023-07-29T07:49:29;96787.69;;;19.45;95.07
32251;BME280;41295;48.518;9.206;2023-07-29T07:51:32;96795.50;;;19.47;95.26
32251;BME280;41295;48.518;9.206;2023-07-29T07:53:35;96788.03;;;19.52;95.10
32251;BME280;41295;48.518;9.206;2023-07-29T07:55:37;96785.25;;;19.54;95.16
32251;BME280;41295;48.518;9.206;2023-07-29T07:57:40;96785.97;;;19.56;95.30
32251;BME280;41295;48.518;9.206;2023-07-29T07:59:44;96778.16;;;19.54;95.23
32251;BME280;41295;48.518;9.206;2023-07-29T08:01:47;96784.25;;;19.55;95.51
32251;BME280;41295;48.518;9.206;2023-07-29T08:03:49;96790.41;;;19.55;95.39
32251;BME280;41295;48.518;9.206;2023-07-29T08:05:52;96782.72;;;19.52;95.70
32251;BME280;41295;48.518;9.206;2023-07-29T08:07:55;96788.47;;;19.57;95.96
32251;BME280;41295;48.518;9.206;2023-07-29T08:09:58;96773.91;;;19.63;95.91
32251;BME280;41295;48.518;9.206;2023-07-29T08:12:00;96785.22;;;19.65;95.85
32251;BME280;41295;48.518;9.206;2023-07-29T08:14:03;96782.78;;;19.62;96.01
32251;BME280;41295;48.518;9.206;2023-07-29T08:16:07;96787.13;;;19.63;95.93
32251;BME280;41295;48.518;9.206;2023-07-29T08:18:09;96783.06;;;19.59;95.99
32251;BME280;41295;48.518;9.206;2023-07-29T08:20:12;96788.34;;;19.59;96.12
32251;BME280;41295;48.518;9.206;2023-07-29T08:22:15;96795.31;;;19.60;95.41
32251;BME280;41295;48.518;9.206;2023-07-29T08:24:18;96793.38;;;19.62;94.91
32251;BME280;41295;48.518;9.206;2023-07-29T08:26:21;96795.88;;;19.64;94.61
32251;BME280;41295;48.518;9.206;2023-07-29T08:28:23;96787.94;;;19.64;94.69
32251;BME280;41295;48.518;9.206;2023-07-29T08:30:26;96787.94;;;19.64;94.52
32251;BME280;41295;48.518;9.206;2023-07-29T08:32:30;96802.59;;;19.68;94.63
32251;BME280;41295;48.518;9.206;2023-07-29T08:34:33;96788.44;;;19.69;94.10
32251;BME280;41295;48.518;9.206;2023-07-29T08:36:36;96792.88;;;19.68;94.24
32251;BME280;41295;48.518;9.206;2023-07-29T08:38:39;96790.28;;;19.78;93.98
32251;BME280;41295;48.518;9.206;2023-07-29T08:40:45;96798.69;;;19.83;93.21
32251;BME280;41295;48.518;9.206;2023-07-29T08:42:48;96786.19;;;19.86;93.61
32251;BME280;41295;48.518;9.206;2023-07-29T08:44:54;96789.41;;;19.89;93.09
32251;BME280;41295;48.518;9.206;2023-07-29T08:46:59;96801.09;;;19.87;92.87
32251;BME280;41295;48.518;9.206;2023-07-29T08:49:04;96810.25;;;19.82;92.82
32251;BME280;41295;48.518;9.206;2023-07-29T08:51:08;96800.75;;;19.80;93.02
32251;BME280;41295;48.518;9.206;2023-07-29T08:53:11;96795.66;;;19.88;91.44
32251;BME280;41295;48.518;9.206;2023-07-29T08:55:15;96799.72;;;19.92;91.82
32251;BME280;41295;48.518;9.206;2023-07-29T08:57:18;96797.28;;;20.01;91.03
32251;BME280;41295;48.518;9.206;2023-07-29T08:59:23;96797.78;;;20.06;90.13
32251;BME280;41295;48.518;9.206;2023-07-29T09:01:25;96804.72;;;20.07;90.55
32251;BME280;41295;48.518;9.206;2023-07-29T09:03:27;96799.81;;;20.02;91.10
32251;BME280;41295;48.518;9.206;2023-07-29T09:05:33;96793.53;;;20.03;91.56
32251;BME280;41295;48.518;9.206;2023-07-29T09:07:36;96798.72;;;20.05;91.85
32251;BME280;41295;48.518;9.206;2023-07-29T09:09:39;96804.72;;;20.07;92.40
32251;BME280;41295;48.518;9.206;2023-07-29T09:11:43;96800.72;;;20.13;93.38
32251;BME280;41295;48.518;9.206;2023-07-29T09:13:46;96792.72;;;20.24;93.38
32251;BME280;41295;48.518;9.206;2023-07-29T09:15:48;96786.03;;;20.30;93.53
32251;BME280;41295;48.518;9.206;2023-07-29T09:17:52;96779.53;;;20.34;94.17
32251;BME280;41295;48.518;9.206;2023-07-29T09:19:54;96780.81;;;20.40;94.75
32251;BME280;41295;48.518;9.206;2023-07-29T09:21:58;96774.97;;;20.46;94.84
32251;BME280;41295;48.518;9.206;2023-07-29T09:24:03;96779.75;;;20.52;94.99
32251;BME280;41295;48.518;9.206;2023-07-29T09:26:09;96779.34;;;20.57;94.92
32251;BME280;41295;48.518;9.206;2023-07-29T09:28:13;96779.06;;;20.60;94.90
32251;BME280;41295;48.518;9.206;2023-07-29T09:30:17;96774.91;;;20.67;95.27
32251;BME280;41295;48.518;9.206;2023-07-29T09:32:20;96769.09;;;20.74;95.29
32251;BME280;41295;48.518;9.206;2023-07-29T09:34:23;96762.53;;;20.78;95.15
32251;BME280;41295;48.518;9.206;2023-07-29T09:36:26;96755.88;;;20.84;95.01
32251;BME280;41295;48.518;9.206;2023-07-29T09:38:31;96753.22;;;20.84;94.53
32251;BME280;41295;48.518;9.206;2023-07-29T09:40:34;96738.75;;;20.88;94.02
32251;BME280;41295;48.518;9.206;2023-07-29T09:42:38;96738.31;;;20.92;94.27
32251;BME280;41295;48.518;9.206;2023-07-29T09:44:41;96740.00;;;20.94;94.39
32251;BME280;41295;48.518;9.206;2023-07-29T09:46:45;96739.91;;;21.05;90.80
32251;BME280;41295;48.518;9.206;2023-07-29T09:48:48;96736.28;;;21.06;89.67
32251;BME280;41295;48.518;9.206;2023-07-29T09:50:52;96737.28;;;21.15;88.06
32251;BME280;41295;48.518;9.206;2023-07-29T09:52:56;96746.91;;;21.16;88.47
32251;BME280;41295;48.518;9.206;2023-07-29T09:55:01;96757.34;;;21.18;88.51
32251;BME280;41295;48.518;9.206;2023-07-29T09:57:06;96760.19;;;21.26;87.92
32251;BME280;41295;48.518;9.206;2023-07-29T09:59:09;96749.84;;;21.43;85.64
32251;BME280;41295;48.518;9.206;2023-07-29T10:01:13;96758.06;;;21.49;84.61
32251;BME280;41295;48.518;9.206;2023-07-29T10:03:17;96756.25;;;21.70;82.58
32251;BME280;41295;48.518;9.206;2023-07-29T10:05:22;96753.16;;;21.74;80.62
32251;BME280;41295;48.518;9.206;2023-07-29T10:07:25;96746.34;;;21.82;80.69
32251;BME280;41295;48.518;9.206;2023-07-29T10:09:29;96750.25;;;21.97;80.54
32251;BME280;41295;48.518;9.206;2023-07-29T10:11:34;96759.31;;;22.05;79.21
32251;BME280;41295;48.518;9.206;2023-07-29T10:13:38;96748.81;;;22.03;80.23
32251;BME280;41295;48.518;9.206;2023-07-29T10:15:44;96750.06;;;22.09;80.79
32251;BME280;41295;48.518;9.206;2023-07-29T10:17:47;96757.31;;;22.17;80.12
32251;BME280;41295;48.518;9.206;2023-07-29T10:19:53;96750.06;;;22.19;75.78
32251;BME280;41295;48.518;9.206;2023-07-29T10:21:59;96747.66;;;22.26;75.44
32251;BME280;41295;48.518;9.206;2023-07-29T10:24:05;96749.72;;;22.32;73.58
32251;BME280;41295;48.518;9.206;2023-07-29T10:26:13;96745.69;;;22.28;72.92
32251;BME280;41295;48.518;9.206;2023-07-29T10:28:20;96746.66;;;22.27;72.81
32251;BME280;41295;48.518;9.206;2023-07-29T10:30:28;96736.28;;;22.33;71.37
32251;BME280;41295;48.518;9.206;2023-07-29T10:32:31;96741.09;;;22.30;72.21
32251;BME280;41295;48.518;9.206;2023-07-29T10:34:35;96747.47;;;22.37;71.83
32251;BME280;41295;48.518;9.206;2023-07-29T10:36:38;96740.78;;;22.33;72.13
32251;BME280;41295;48.518;9.206;2023-07-29T10:38:41;96740.75;;;22.43;74.21
32251;BME280;41295;48.518;9.206;2023-07-29T10:40:45;96749.50;;;22.53;70.26
32251;BME280;41295;48.518;9.206;2023-07-29T10:43:01;96742.22;;;22.55;70.01
32251;BME280;41295;48.518;9.206;2023-07-29T10:45:20;96747.94;;;22.61;70.69
32251;BME280;41295;48.518;9.206;2023-07-29T10:47:24;96744.03;;;22.65;69.43
32251;BME280;41295;48.518;9.206;2023-07-29T10:49:26;96746.50;;;22.76;67.28
32251;BME280;41295;48.518;9.206;2023-07-29T10:51:35;96728.56;;;22.78;66.80
32251;BME280;41295;48.518;9.206;2023-07-29T10:53:38;96727.38;;;22.91;65.39